sensor_id;sensor_type;location;lat;lon;timestamp;pressure;altitude;pressure_sealevel;temperature;humidity
9525;BME280;15940;48.734;9.112;2023-02-18T00:00:19;97481.38;;;10.09;78.42
9525;BME280;15940;48.734;9.112;2023-02-18T00:02:49;97472.78;;;10.10;78.10
9525;BME280;15940;48.734;9.112;2023-02-18T00:05:16;97483.63;;;10.10;77.99
9525;BME280;15940;48.734;9.112;2023-02-18T00:07:43;97473.81;;;10.13;78.18
9525;BME280;15940;48.734;9.112;2023-02-18T00:10:13;97466.22;;;10.02;77.93
9525;BME280;15940;48.734;9.112;2023-02-18T00:12:41;97477.69;;;9.97;77.74
9525;BME280;15940;48.734;9.112;2023-02-18T00:15:10;97470.88;;;10.01;78.49
9525;BME280;15940;48.734;9.112;2023-02-18T00:17:37;97476.03;;;9.99;77.91
9525;BME280;15940;48.734;9.112;2023-02-18T00:20:06;97471.81;;;9.98;77.90
9525;BME280;15940;48.734;9.112;2023-02-18T00:22:34;97454.97;;;9.94;77.90
9525;BME280;15940;48.734;9.112;2023-02-18T00:25:01;97460.75;;;9.87;78.16
9525;BME280;15940;48.734;9.112;2023-02-18T00:27:28;97463.75;;;9.89;78.34
9525;BME280;15940;48.734;9.112;2023-02-18T00:29:55;97460.00;;;9.87;78.33
9525;BME280;15940;48.734;9.112;2023-02-18T00:32:24;97466.31;;;9.84;78.41
9525;BME280;15940;48.734;9.112;2023-02-18T00:34:53;97469.19;;;9.80;78.54
9525;BME280;15940;48.734;9.112;2023-02-18T00:37:19;97470.56;;;9.76;78.11
9525;BME280;15940;48.734;9.112;2023-02-18T00:39:46;97464.41;;;9.75;78.86
9525;BME280;15940;48.734;9.112;2023-02-18T00:42:13;97466.25;;;9.69;79.16
9525;BME280;15940;48.734;9.112;2023-02-18T00:44:40;97471.03;;;9.74;78.39
9525;BME280;15940;48.734;9.112;2023-02-18T00:47:07;97455.72;;;9.71;78.67
9525;BME280;15940;48.734;9.112;2023-02-18T00:49:36;97448.63;;;9.73;78.58
9525;BME280;15940;48.734;9.112;2023-02-18T00:52:04;97440.19;;;9.81;78.70
9525;BME280;15940;48.734;9.112;2023-02-18T00:54:30;97445.59;;;9.81;78.17
9525;BME280;15940;48.734;9.112;2023-02-18T00:56:57;97448.13;;;9.84;78.50
9525;BME280;15940;48.734;9.112;2023-02-18T00:59:24;97449.53;;;9.80;78.62
9525;BME280;15940;48.734;9.112;2023-02-18T01:01:51;97445.66;;;9.71;77.73
9525;BME280;15940;48.734;9.112;2023-02-18T01:04:18;97453.00;;;9.71;78.81
9525;BME280;15940;48.734;9.112;2023-02-18T01:06:46;97456.19;;;9.69;78.22
9525;BME280;15940;48.734;9.112;2023-02-18T01:09:13;97453.00;;;9.71;78.78
9525;BME280;15940;48.734;9.112;2023-02-18T01:11:40;97452.75;;;9.60;78.69
9525;BME280;15940;48.734;9.112;2023-02-18T01:14:07;97444.75;;;9.65;78.61
9525;BME280;15940;48.734;9.112;2023-02-18T01:16:34;97449.13;;;9.63;79.00
9525;BME280;15940;48.734;9.112;2023-02-18T01:19:01;97441.44;;;9.70;78.78
9525;BME280;15940;48.734;9.112;2023-02-18T01:21:28;97438.59;;;9.65;78.74
9525;BME280;15940;48.734;9.112;2023-02-18T01:23:56;97442.22;;;9.62;78.71
9525;BME280;15940;48.734;9.112;2023-02-18T01:26:24;97441.66;;;9.58;78.32
9525;BME280;15940;48.734;9.112;2023-02-18T01:28:51;97436.56;;;9.51;79.06
9525;BME280;15940;48.734;9.112;2023-02-18T01:31:18;97435.53;;;9.48;78.06
9525;BME280;15940;48.734;9.112;2023-02-18T01:33:45;97431.16;;;9.51;78.58
9525;BME280;15940;48.734;9.112;2023-02-18T01:36:12;97420.06;;;9.49;79.11
9525;BME280;15940;48.734;9.112;2023-02-18T01:38:39;97420.34;;;9.51;78.32
9525;BME280;15940;48.734;9.112;2023-02-18T01:41:08;97424.00;;;9.38;79.20
9525;BME280;15940;48.734;9.112;2023-02-18T01:43:36;97431.06;;;9.36;79.00
9525;BME280;15940;48.734;9.112;2023-02-18T01:46:13;97424.44;;;9.37;78.84
9525;BME280;15940;48.734;9.112;2023-02-18T01:48:44;97425.78;;;9.41;79.09
9525;BME280;15940;48.734;9.112;2023-02-18T01:51:16;97432.09;;;9.48;78.52
9525;BME280;15940;48.734;9.112;2023-02-18T01:53:52;97427.56;;;9.44;78.76
9525;BME280;15940;48.734;9.112;2023-02-18T01:56:28;97427.56;;;9.44;78.51
9525;BME280;15940;48.734;9.112;2023-02-18T01:59:09;97421.75;;;9.37;78.78
9525;BME280;15940;48.734;9.112;2023-02-18T02:01:38;97413.66;;;9.28;79.25
9525;BME280;15940;48.734;9.112;2023-02-18T02:04:06;97425.69;;;9.27;79.34
9525;BME280;15940;48.734;9.112;2023-02-18T02:06:33;97414.13;;;9.26;78.99
9525;BME280;15940;48.734;9.112;2023-02-18T02:09:04;97426.28;;;9.31;79.07
9525;BME280;15940;48.734;9.112;2023-02-18T02:12:00;97410.22;;;9.27;78.68
9525;BME280;15940;48.734;9.112;2023-02-18T02:15:14;97405.59;;;9.19;78.89
9525;BME280;15940;48.734;9.112;2023-02-18T02:17:57;97415.84;;;9.05;79.44
9525;BME280;15940;48.734;9.112;2023-02-18T02:24:28;97414.19;;;9.08;79.49
9525;BME280;15940;48.734;9.112;2023-02-18T02:27:14;97422.59;;;9.10;79.64
9525;BME280;15940;48.734;9.112;2023-02-18T02:30:21;97421.25;;;9.05;79.59
9525;BME280;15940;48.734;9.112;2023-02-18T02:33:34;97414.97;;;8.99;79.76
9525;BME280;15940;48.734;9.112;2023-02-18T02:36:10;97422.78;;;8.97;79.63
9525;BME280;15940;48.734;9.112;2023-02-18T02:38:49;97406.72;;;8.94;79.38
9525;BME280;15940;48.734;9.112;2023-02-18T02:41:36;97397.91;;;8.84;79.81
9525;BME280;15940;48.734;9.112;2023-02-18T02:44:18;97402.66;;;8.89;80.21
9525;BME280;15940;48.734;9.112;2023-02-18T02:46:50;97405.22;;;8.93;79.93
9525;BME280;15940;48.734;9.112;2023-02-18T02:49:31;97402.50;;;9.02;79.70
9525;BME280;15940;48.734;9.112;2023-02-18T02:52:04;97392.75;;;9.04;79.64
9525;BME280;15940;48.734;9.112;2023-02-18T02:54:34;97391.22;;;9.12;79.36
9525;BME280;15940;48.734;9.112;2023-02-18T02:57:08;97387.44;;;9.19;79.17
9525;BME280;15940;48.734;9.112;2023-02-18T02:59:39;97388.91;;;9.29;79.11
9525;BME280;15940;48.734;9.112;2023-02-18T03:02:22;97388.44;;;9.31;78.51
9525;BME280;15940;48.734;9.112;2023-02-18T03:05:07;97391.28;;;9.27;78.78
9525;BME280;15940;48.734;9.112;2023-02-18T03:08:11;97393.22;;;9.36;78.54
9525;BME280;15940;48.734;9.112;2023-02-18T03:10:53;97390.41;;;9.30;78.38
9525;BME280;15940;48.734;9.112;2023-02-18T03:13:42;97394.16;;;9.24;79.07
9525;BME280;15940;48.734;9.112;2023-02-18T03:16:25;97404.97;;;9.24;78.98
9525;BME280;15940;48.734;9.112;2023-02-18T03:19:00;97400.97;;;9.19;78.80
9525;BME280;15940;48.734;9.112;2023-02-18T03:21:35;97395.97;;;9.18;79.12
9525;BME280;15940;48.734;9.112;2023-02-18T03:24:12;97385.66;;;9.07;79.28
9525;BME280;15940;48.734;9.112;2023-02-18T03:26:46;97387.66;;;8.97;79.20
9525;BME280;15940;48.734;9.112;2023-02-18T03:29:16;97381.22;;;8.85;79.77
9525;BME280;15940;48.734;9.112;2023-02-18T03:31:48;97370.28;;;8.80;80.57
9525;BME280;15940;48.734;9.112;2023-02-18T03:34:22;97376.59;;;8.77;80.59
9525;BME280;15940;48.734;9.112;2023-02-18T03:36:52;97361.88;;;8.78;80.29
9525;BME280;15940;48.734;9.112;2023-02-18T03:39:23;97374.34;;;8.75;80.74
9525;BME280;15940;48.734;9.112;2023-02-18T03:41:51;97371.03;;;8.80;80.73
9525;BME280;15940;48.734;9.112;2023-02-18T03:44:19;97362.16;;;8.80;80.29
9525;BME280;15940;48.734;9.112;2023-02-18T03:46:46;97360.22;;;8.80;80.33
9525;BME280;15940;48.734;9.112;2023-02-18T03:49:14;97362.81;;;8.75;80.47
9525;BME280;15940;48.734;9.112;2023-02-18T03:51:42;97366.56;;;8.68;81.05
9525;BME280;15940;48.734;9.112;2023-02-18T03:54:09;97376.91;;;8.61;81.07
9525;BME280;15940;48.734;9.112;2023-02-18T03:56:40;97380.69;;;8.54;81.23
9525;BME280;15940;48.734;9.112;2023-02-18T03:59:08;97366.13;;;8.51;81.69
9525;BME280;15940;48.734;9.112;2023-02-18T04:01:35;97371.50;;;8.61;81.90
9525;BME280;15940;48.734;9.112;2023-02-18T04:04:02;97372.69;;;8.69;81.50
9525;BME280;15940;48.734;9.112;2023-02-18T04:06:29;97375.56;;;8.74;80.90
9525;BME280;15940;48.734;9.112;2023-02-18T04:08:56;97372.69;;;8.69;81.02
9525;BME280;15940;48.734;9.112;2023-02-18T04:11:23;97370.16;;;8.65;81.18
9525;BME280;15940;48.734;9.112;2023-02-18T04:13:51;97373.63;;;8.66;81.07
9525;BME280;15940;48.734;9.112;2023-02-18T04:16:18;97377.66;;;8.61;81.15
9525;BME280;15940;48.734;9.112;2023-02-18T04:18:45;97372.59;;;8.63;81.16
9525;BME280;15940;48.734;9.112;2023-02-18T04:21:12;97365.66;;;8.62;80.77
9525;BME280;15940;48.734;9.112;2023-02-18T04:23:39;97365.06;;;8.67;80.98
9525;BME280;15940;48.734;9.112;2023-02-18T04:26:06;97372.09;;;8.74;81.00
9525;BME280;15940;48.734;9.112;2023-02-18T04:28:32;97365.53;;;8.66;80.52
9525;BME280;15940;48.734;9.112;2023-02-18T04:31:01;97360.72;;;8.61;80.84
9525;BME280;15940;48.734;9.112;2023-02-18T04:33:28;97351.44;;;8.52;80.82
9525;BME280;15940;48.734;9.112;2023-02-18T04:35:55;97350.84;;;8.48;81.18
9525;BME280;15940;48.734;9.112;2023-02-18T04:38:22;97357.63;;;8.44;81.59
9525;BME280;15940;48.734;9.112;2023-02-18T04:40:49;97354.59;;;8.42;81.48
9525;BME280;15940;48.734;9.112;2023-02-18T04:43:16;97355.34;;;8.42;81.34
9525;BME280;15940;48.734;9.112;2023-02-18T04:45:43;97346.81;;;8.44;81.03
9525;BME280;15940;48.734;9.112;2023-02-18T04:48:11;97359.09;;;8.45;81.14
9525;BME280;15940;48.734;9.112;2023-02-18T04:50:38;97361.66;;;8.39;81.57
9525;BME280;15940;48.734;9.112;2023-02-18T04:53:05;97356.09;;;8.43;81.79
9525;BME280;15940;48.734;9.112;2023-02-18T04:55:32;97356.84;;;8.43;81.44
9525;BME280;15940;48.734;9.112;2023-02-18T04:57:59;97351.16;;;8.41;81.52
9525;BME280;15940;48.734;9.112;2023-02-18T05:00:26;97358.94;;;8.48;81.48
9525;BME280;15940;48.734;9.112;2023-02-18T05:02:54;97359.53;;;8.52;81.13
9525;BME280;15940;48.734;9.112;2023-02-18T05:05:22;97359.53;;;8.52;81.12
9525;BME280;15940;48.734;9.112;2023-02-18T05:07:49;97353.69;;;8.54;81.01
9525;BME280;15940;48.734;9.112;2023-02-18T05:10:17;97356.25;;;8.48;81.24
9525;BME280;15940;48.734;9.112;2023-02-18T05:12:44;97349.94;;;8.51;81.22
9525;BME280;15940;48.734;9.112;2023-02-18T05:15:11;97350.81;;;8.57;81.04
9525;BME280;15940;48.734;9.112;2023-02-18T05:17:38;97353.97;;;8.56;81.02
9525;BME280;15940;48.734;9.112;2023-02-18T05:20:07;97356.53;;;8.50;80.87
9525;BME280;15940;48.734;9.112;2023-02-18T05:22:35;97356.81;;;8.62;81.21
9525;BME280;15940;48.734;9.112;2023-02-18T05:25:03;97358.63;;;8.65;80.71
9525;BME280;15940;48.734;9.112;2023-02-18T05:27:30;97359.69;;;8.58;80.81
9525;BME280;15940;48.734;9.112;2023-02-18T05:29:57;97361.78;;;8.54;80.93
9525;BME280;15940;48.734;9.112;2023-02-18T05:32:24;97355.66;;;8.53;80.90
9525;BME280;15940;48.734;9.112;2023-02-18T05:34:51;97358.34;;;8.53;80.90
9525;BME280;15940;48.734;9.112;2023-02-18T05:37:17;97357.91;;;8.55;81.21
9525;BME280;15940;48.734;9.112;2023-02-18T05:39:46;97350.38;;;8.59;81.29
9525;BME280;15940;48.734;9.112;2023-02-18T05:42:13;97356.22;;;8.67;81.00
9525;BME280;15940;48.734;9.112;2023-02-18T05:44:40;97354.84;;;8.62;81.06
9525;BME280;15940;48.734;9.112;2023-02-18T05:47:09;97349.59;;;8.68;81.03
9525;BME280;15940;48.734;9.112;2023-02-18T05:49:38;97345.97;;;8.80;80.80
9525;BME280;15940;48.734;9.112;2023-02-18T05:52:06;97339.50;;;8.86;80.50
9525;BME280;15940;48.734;9.112;2023-02-18T05:54:34;97342.34;;;8.92;80.40
9525;BME280;15940;48.734;9.112;2023-02-18T05:57:03;97343.84;;;8.93;80.21
9525;BME280;15940;48.734;9.112;2023-02-18T05:59:30;97344.91;;;8.86;80.44
9525;BME280;15940;48.734;9.112;2023-02-18T06:01:57;97336.50;;;8.84;80.47
9525;BME280;15940;48.734;9.112;2023-02-18T06:04:25;97343.69;;;8.87;80.72
9525;BME280;15940;48.734;9.112;2023-02-18T06:06:51;97342.75;;;9.00;80.42
9525;BME280;15940;48.734;9.112;2023-02-18T06:09:19;97338.72;;;8.95;80.83
9525;BME280;15940;48.734;9.112;2023-02-18T06:11:46;97316.34;;;8.95;80.69
9525;BME280;15940;48.734;9.112;2023-02-18T06:14:14;97329.59;;;8.93;80.71
9525;BME280;15940;48.734;9.112;2023-02-18T06:16:41;97329.31;;;8.81;80.95
9525;BME280;15940;48.734;9.112;2023-02-18T06:19:08;97334.72;;;8.81;81.45
9525;BME280;15940;48.734;9.112;2023-02-18T06:21:35;97346.81;;;8.95;80.82
9525;BME280;15940;48.734;9.112;2023-02-18T06:24:02;97339.50;;;8.86;80.45
9525;BME280;15940;48.734;9.112;2023-02-18T06:26:30;97342.78;;;8.91;80.89
9525;BME280;15940;48.734;9.112;2023-02-18T06:28:56;97339.66;;;8.83;81.43
9525;BME280;15940;48.734;9.112;2023-02-18T06:31:25;97343.22;;;8.89;81.42
9525;BME280;15940;48.734;9.112;2023-02-18T06:33:52;97339.47;;;8.96;81.10
9525;BME280;15940;48.734;9.112;2023-02-18T06:36:19;97348.28;;;9.05;80.64
9525;BME280;15940;48.734;9.112;2023-02-18T06:38:46;97340.00;;;9.09;79.45
9525;BME280;15940;48.734;9.112;2023-02-18T06:41:13;97347.22;;;9.12;80.07
9525;BME280;15940;48.734;9.112;2023-02-18T06:43:41;97343.88;;;9.17;79.84
9525;BME280;15940;48.734;9.112;2023-02-18T06:46:08;97345.69;;;9.20;79.90
9525;BME280;15940;48.734;9.112;2023-02-18T06:48:36;97342.81;;;9.24;79.91
9525;BME280;15940;48.734;9.112;2023-02-18T06:51:04;97353.44;;;9.27;79.44
9525;BME280;15940;48.734;9.112;2023-02-18T06:53:31;97345.06;;;9.25;79.46
9525;BME280;15940;48.734;9.112;2023-02-18T06:55:58;97351.06;;;9.29;79.43
9525;BME280;15940;48.734;9.112;2023-02-18T06:58:25;97355.34;;;9.36;79.01
9525;BME280;15940;48.734;9.112;2023-02-18T07:00:52;97356.84;;;9.37;78.87
9525;BME280;15940;48.734;9.112;2023-02-18T07:03:19;97350.69;;;9.36;78.47
9525;BME280;15940;48.734;9.112;2023-02-18T07:05:48;97357.28;;;9.44;78.83
9525;BME280;15940;48.734;9.112;2023-02-18T07:08:16;97354.41;;;9.48;78.85
9525;BME280;15940;48.734;9.112;2023-02-18T07:10:43;97356.94;;;9.52;78.67
9525;BME280;15940;48.734;9.112;2023-02-18T07:13:10;97359.66;;;9.52;78.42
9525;BME280;15940;48.734;9.112;2023-02-18T07:15:37;97357.69;;;9.52;78.34
9525;BME280;15940;48.734;9.112;2023-02-18T07:18:04;97362.34;;;9.52;78.31
9525;BME280;15940;48.734;9.112;2023-02-18T07:20:31;97362.06;;;9.50;78.84
9525;BME280;15940;48.734;9.112;2023-02-18T07:23:00;97354.47;;;9.63;78.38
9525;BME280;15940;48.734;9.112;2023-02-18T07:25:27;97354.00;;;9.64;78.37
9525;BME280;15940;48.734;9.112;2023-02-18T07:27:54;97354.47;;;9.63;77.99
9525;BME280;15940;48.734;9.112;2023-02-18T07:30:21;97353.72;;;9.62;78.01
9525;BME280;15940;48.734;9.112;2023-02-18T07:32:48;97344.25;;;9.67;78.44
9525;BME280;15940;48.734;9.112;2023-02-18T07:35:16;97352.16;;;9.70;78.34
9525;BME280;15940;48.734;9.112;2023-02-18T07:37:44;97338.06;;;9.66;78.53
9525;BME280;15940;48.734;9.112;2023-02-18T07:40:15;97346.16;;;9.66;78.56
9525;BME280;15940;48.734;9.112;2023-02-18T07:42:43;97339.84;;;9.69;78.77
9525;BME280;15940;48.734;9.112;2023-02-18T07:45:13;97335.00;;;9.73;78.76
9525;BME280;15940;48.734;9.112;2023-02-18T07:47:40;97331.41;;;9.77;78.43
9525;BME280;15940;48.734;9.112;2023-02-18T07:50:08;97325.69;;;9.74;78.62
9525;BME280;15940;48.734;9.112;2023-02-18T07:52:35;97342.78;;;9.81;78.17
9525;BME280;15940;48.734;9.112;2023-02-18T07:55:03;97333.28;;;9.85;78.19
9525;BME280;15940;48.734;9.112;2023-02-18T07:57:31;97328.72;;;9.91;78.38
9525;BME280;15940;48.734;9.112;2023-02-18T07:59:58;97328.84;;;9.97;77.66
9525;BME280;15940;48.734;9.112;2023-02-18T08:02:25;97313.63;;;9.99;77.61
9525;BME280;15940;48.734;9.112;2023-02-18T08:04:52;97323.53;;;10.02;77.29
9525;BME280;15940;48.734;9.112;2023-02-18T08:07:20;97317.75;;;10.10;76.72
9525;BME280;15940;48.734;9.112;2023-02-18T08:09:48;97319.38;;;10.16;76.28
9525;BME280;15940;48.734;9.112;2023-02-18T08:12:15;97330.88;;;10.26;75.68
9525;BME280;15940;48.734;9.112;2023-02-18T08:14:44;97327.81;;;10.33;75.08
9525;BME280;15940;48.734;9.112;2023-02-18T08:17:11;97340.41;;;10.36;74.01
9525;BME280;15940;48.734;9.112;2023-02-18T08:19:37;97332.84;;;10.40;74.22
9525;BME280;15940;48.734;9.112;2023-02-18T08:22:04;97330.72;;;10.44;74.02
9525;BME280;15940;48.734;9.112;2023-02-18T08:24:31;97335.09;;;10.42;74.00
9525;BME280;15940;48.734;9.112;2023-02-18T08:26:58;97333.91;;;10.43;73.37
9525;BME280;15940;48.734;9.112;2023-02-18T08:29:27;97330.81;;;10.50;74.12
9525;BME280;15940;48.734;9.112;2023-02-18T08:31:55;97329.69;;;10.56;74.02
9525;BME280;15940;48.734;9.112;2023-02-18T08:34:24;97326.63;;;10.64;73.12
9525;BME280;15940;48.734;9.112;2023-02-18T08:36:51;97329.41;;;10.69;72.80
9525;BME280;15940;48.734;9.112;2023-02-18T08:39:18;97324.72;;;10.70;73.17
9525;BME280;15940;48.734;9.112;2023-02-18T08:41:45;97313.50;;;10.77;72.75
9525;BME280;15940;48.734;9.112;2023-02-18T08:44:12;97317.63;;;10.87;72.57
9525;BME280;15940;48.734;9.112;2023-02-18T08:46:39;97314.91;;;11.02;71.87
9525;BME280;15940;48.734;9.112;2023-02-18T08:49:08;97317.66;;;11.07;71.16
9525;BME280;15940;48.734;9.112;2023-02-18T08:51:35;97310.84;;;11.12;71.59
9525;BME280;15940;48.734;9.112;2023-02-18T08:54:02;97318.25;;;11.11;71.36
9525;BME280;15940;48.734;9.112;2023-02-18T08:56:29;97317.50;;;11.11;70.93
9525;BME280;15940;48.734;9.112;2023-02-18T08:58:57;97314.84;;;11.16;71.01
9525;BME280;15940;48.734;9.112;2023-02-18T09:01:24;97309.44;;;11.16;70.95
9525;BME280;15940;48.734;9.112;2023-02-18T09:03:51;97317.50;;;11.11;70.36
9525;BME280;15940;48.734;9.112;2023-02-18T09:06:20;97299.31;;;11.17;70.69
9525;BME280;15940;48.734;9.112;2023-02-18T09:08:47;97306.13;;;11.27;70.48
9525;BME280;15940;48.734;9.112;2023-02-18T09:11:14;97298.19;;;11.24;69.95
9525;BME280;15940;48.734;9.112;2023-02-18T09:13:41;97311.63;;;11.33;70.79
9525;BME280;15940;48.734;9.112;2023-02-18T09:16:12;97304.38;;;11.44;69.53
9525;BME280;15940;48.734;9.112;2023-02-18T09:18:39;97302.75;;;11.53;69.44
9525;BME280;15940;48.734;9.112;2023-02-18T09:21:08;97303.50;;;11.53;69.62
9525;BME280;15940;48.734;9.112;2023-02-18T09:23:36;97292.59;;;11.48;69.49
9525;BME280;15940;48.734;9.112;2023-02-18T09:26:05;97295.63;;;11.55;69.27
9525;BME280;15940;48.734;9.112;2023-02-18T09:28:32;97290.56;;;11.63;69.23
9525;BME280;15940;48.734;9.112;2023-02-18T09:31:04;97288.41;;;11.67;68.51
9525;BME280;15940;48.734;9.112;2023-02-18T09:33:33;97286.00;;;11.74;68.47
9525;BME280;15940;48.734;9.112;2023-02-18T09:36:00;97285.25;;;11.74;68.26
9525;BME280;15940;48.734;9.112;2023-02-18T09:38:27;97270.19;;;11.73;68.62
9525;BME280;15940;48.734;9.112;2023-02-18T09:40:57;97272.44;;;11.74;68.86
9525;BME280;15940;48.734;9.112;2023-02-18T09:43:31;97270.75;;;11.77;68.31
9525;BME280;15940;48.734;9.112;2023-02-18T09:46:01;97276.72;;;11.81;68.57
9525;BME280;15940;48.734;9.112;2023-02-18T09:48:31;97269.06;;;11.80;68.43
9525;BME280;15940;48.734;9.112;2023-02-18T09:50:59;97276.19;;;11.77;68.44
9525;BME280;15940;48.734;9.112;2023-02-18T09:53:27;97273.66;;;11.73;68.21
9525;BME280;15940;48.734;9.112;2023-02-18T09:55:56;97282.44;;;11.83;67.73
9525;BME280;15940;48.734;9.112;2023-02-18T09:58:27;97276.84;;;11.92;68.26
9525;BME280;15940;48.734;9.112;2023-02-18T10:01:03;97268.50;;;11.96;67.78
9525;BME280;15940;48.734;9.112;2023-02-18T10:03:31;97275.25;;;11.80;67.83
9525;BME280;15940;48.734;9.112;2023-02-18T10:06:02;97266.72;;;11.72;68.15
9525;BME280;15940;48.734;9.112;2023-02-18T10:08:35;97280.94;;;11.82;68.37
9525;BME280;15940;48.734;9.112;2023-02-18T10:11:05;97269.75;;;11.95;68.06
9525;BME280;15940;48.734;9.112;2023-02-18T10:13:39;97279.31;;;11.90;67.97
9525;BME280;15940;48.734;9.112;2023-02-18T10:16:07;97274.75;;;11.82;67.98
9525;BME280;15940;48.734;9.112;2023-02-18T10:18:49;97254.06;;;11.84;67.94
9525;BME280;15940;48.734;9.112;2023-02-18T10:21:24;97257.84;;;11.92;67.67
9525;BME280;15940;48.734;9.112;2023-02-18T10:23:59;97262.88;;;11.79;67.74
9525;BME280;15940;48.734;9.112;2023-02-18T10:26:29;97273.38;;;11.71;68.60
9525;BME280;15940;48.734;9.112;2023-02-18T10:28:57;97277.59;;;11.72;68.61
9525;BME280;15940;48.734;9.112;2023-02-18T10:31:32;97279.84;;;11.94;68.00
9525;BME280;15940;48.734;9.112;2023-02-18T10:34:12;97277.50;;;12.08;67.54
9525;BME280;15940;48.734;9.112;2023-02-18T10:36:45;97273.63;;;12.14;66.44
9525;BME280;15940;48.734;9.112;2023-02-18T10:39:58;97278.16;;;12.23;66.55
9525;BME280;15940;48.734;9.112;2023-02-18T10:42:40;97280.28;;;12.39;65.71
9525;BME280;15940;48.734;9.112;2023-02-18T10:45:20;97270.28;;;12.25;66.13
9525;BME280;15940;48.734;9.112;2023-02-18T10:48:05;97268.63;;;12.33;65.81
9525;BME280;15940;48.734;9.112;2023-02-18T10:50:37;97269.16;;;12.37;65.99
9525;BME280;15940;48.734;9.112;2023-02-18T10:53:12;97260.75;;;12.35;65.75
9525;BME280;15940;48.734;9.112;2023-02-18T10:55:43;97253.00;;;12.28;65.62
9525;BME280;15940;48.734;9.112;2023-02-18T10:58:44;97257.44;;;12.51;65.78
9525;BME280;15940;48.734;9.112;2023-02-18T11:01:14;97251.59;;;12.64;65.58
9525;BME280;15940;48.734;9.112;2023-02-18T11:03:44;97250.34;;;12.65;64.62
9525;BME280;15940;48.734;9.112;2023-02-18T11:06:20;97252.34;;;12.65;64.70
9525;BME280;15940;48.734;9.112;2023-02-18T11:08:48;97245.34;;;12.90;64.64
9525;BME280;15940;48.734;9.112;2023-02-18T11:11:19;97252.28;;;12.96;63.53
9525;BME280;15940;48.734;9.112;2023-02-18T11:13:54;97244.19;;;13.02;63.67
9525;BME280;15940;48.734;9.112;2023-02-18T11:16:22;97239.84;;;12.84;63.93
9525;BME280;15940;48.734;9.112;2023-02-18T11:18:50;97238.06;;;12.75;64.05
9525;BME280;15940;48.734;9.112;2023-02-18T11:21:29;97234.69;;;12.86;64.07
9525;BME280;15940;48.734;9.112;2023-02-18T11:23:57;97228.31;;;12.95;63.64
9525;BME280;15940;48.734;9.112;2023-02-18T11:26:33;97230.59;;;13.02;62.78
9525;BME280;15940;48.734;9.112;2023-02-18T11:29:06;97226.63;;;13.03;63.31
9525;BME280;15940;48.734;9.112;2023-02-18T11:31:41;97224.34;;;12.96;62.52
9525;BME280;15940;48.734;9.112;2023-02-18T11:34:16;97225.09;;;12.91;62.69
9525;BME280;15940;48.734;9.112;2023-02-18T11:36:44;97215.78;;;13.08;63.53
9525;BME280;15940;48.734;9.112;2023-02-18T11:39:19;97224.78;;;13.20;62.63
9525;BME280;15940;48.734;9.112;2023-02-18T11:41:53;97228.28;;;13.32;62.02
9525;BME280;15940;48.734;9.112;2023-02-18T11:44:28;97215.88;;;13.20;62.29
9525;BME280;15940;48.734;9.112;2023-02-18T11:46:59;97216.28;;;13.12;62.46
9525;BME280;15940;48.734;9.112;2023-02-18T11:49:27;97214.06;;;13.11;62.44
9525;BME280;15940;48.734;9.112;2023-02-18T11:52:08;97207.00;;;13.30;61.93
9525;BME280;15940;48.734;9.112;2023-02-18T11:54:37;97210.16;;;13.18;61.57
9525;BME280;15940;48.734;9.112;2023-02-18T11:57:09;97208.34;;;13.03;61.98
9525;BME280;15940;48.734;9.112;2023-02-18T11:59:39;97200.44;;;13.05;61.59
9525;BME280;15940;48.734;9.112;2023-02-18T12:02:26;97200.22;;;13.09;61.84
9525;BME280;15940;48.734;9.112;2023-02-18T12:05:01;97200.97;;;13.15;61.69
9525;BME280;15940;48.734;9.112;2023-02-18T12:07:38;97197.72;;;13.05;61.91
9525;BME280;15940;48.734;9.112;2023-02-18T12:10:14;97191.44;;;13.31;60.95
9525;BME280;15940;48.734;9.112;2023-02-18T12:12:47;97192.97;;;13.54;60.24
9525;BME280;15940;48.734;9.112;2023-02-18T12:15:23;97200.66;;;13.50;59.84
9525;BME280;15940;48.734;9.112;2023-02-18T12:21:42;97184.41;;;13.89;58.44
9525;BME280;15940;48.734;9.112;2023-02-18T12:24:33;97192.34;;;13.93;59.07
9525;BME280;15940;48.734;9.112;2023-02-18T12:27:12;97190.84;;;13.92;59.00
9525;BME280;15940;48.734;9.112;2023-02-18T12:30:02;97187.41;;;13.97;58.45
9525;BME280;15940;48.734;9.112;2023-02-18T12:32:46;97195.31;;;13.89;58.23
9525;BME280;15940;48.734;9.112;2023-02-18T12:35:36;97189.59;;;13.82;59.02
9525;BME280;15940;48.734;9.112;2023-02-18T12:38:41;97190.56;;;13.79;57.64
9525;BME280;15940;48.734;9.112;2023-02-18T12:41:24;97188.03;;;13.53;58.21
9525;BME280;15940;48.734;9.112;2023-02-18T12:44:03;97186.50;;;13.40;58.28
9525;BME280;15940;48.734;9.112;2023-02-18T12:46:55;97187.50;;;13.43;58.20
9525;BME280;15940;48.734;9.112;2023-02-18T12:49:57;97186.03;;;13.36;58.38
9525;BME280;15940;48.734;9.112;2023-02-18T12:52:36;97195.66;;;13.37;58.64
9525;BME280;15940;48.734;9.112;2023-02-18T12:55:26;97174.66;;;13.49;58.83
9525;BME280;15940;48.734;9.112;2023-02-18T12:58:06;97180.88;;;13.55;58.73
9525;BME280;15940;48.734;9.112;2023-02-18T13:00:59;97185.53;;;13.38;57.89
9525;BME280;15940;48.734;9.112;2023-02-18T13:04:00;97190.66;;;13.19;58.99
9525;BME280;15940;48.734;9.112;2023-02-18T13:07:21;97181.03;;;13.29;58.71
9525;BME280;15940;48.734;9.112;2023-02-18T13:10:05;97180.53;;;13.31;58.42
9525;BME280;15940;48.734;9.112;2023-02-18T13:12:41;97180.13;;;13.60;57.45
9525;BME280;15940;48.734;9.112;2023-02-18T13:15:17;97180.19;;;13.77;56.92
9525;BME280;15940;48.734;9.112;2023-02-18T13:17:47;97178.69;;;13.65;57.29
9525;BME280;15940;48.734;9.112;2023-02-18T13:20:20;97166.97;;;13.36;58.06
9525;BME280;15940;48.734;9.112;2023-02-18T13:22:52;97161.16;;;13.12;57.29
9525;BME280;15940;48.734;9.112;2023-02-18T13:25:20;97170.25;;;13.03;59.04
9525;BME280;15940;48.734;9.112;2023-02-18T13:27:53;97168.47;;;12.95;59.07
9525;BME280;15940;48.734;9.112;2023-02-18T13:30:33;97166.84;;;13.08;59.01
9525;BME280;15940;48.734;9.112;2023-02-18T13:33:12;97165.06;;;13.00;59.21
9525;BME280;15940;48.734;9.112;2023-02-18T13:35:51;97179.91;;;13.04;58.89
9525;BME280;15940;48.734;9.112;2023-02-18T13:41:19;97149.53;;;13.11;58.18
9525;BME280;15940;48.734;9.112;2023-02-18T13:43:47;97138.41;;;13.15;57.95
9525;BME280;15940;48.734;9.112;2023-02-18T13:46:16;97147.16;;;13.30;58.07
9525;BME280;15940;48.734;9.112;2023-02-18T13:48:47;97150.34;;;13.23;58.27
9525;BME280;15940;48.734;9.112;2023-02-18T13:51:17;97144.19;;;13.28;57.98